FAR - Hector Intl

Pirep is a free, collaborative database of all public and private airports located within the United States. All pilots are welcome to contribute, edit, and improve any airport they have local knowledge about, no registration required.
Uploaded photos will be licensed under a CC BY-SA 4.0 license. Please only upload photos you have the rights to use.
Tags
Public
Museum
METAR / TAF
Edit Tags
Food
Camping
Lodging
Car Rental
Bicycles
Swimming
Golfing
Fishing
Hot Springs
Flying Clubs
Airpark
Upcoming Events
No upcoming events. Is anything happening here soon?
*
*
*

Where exactly on/near the airport is this event taking place?

Is there a webpage with more information for this event?

Who should be contacted for more information?

What is this event all about?

Repeat every
Description
Last updated: 2023-04-14 02:36:22 CDT
Transient Parking
Fuel Location
Last updated: 2023-04-14 02:24:22 CDT
Landing & Tie-down Fees
Crew Car Availability
Last updated: 2023-04-14 02:24:22 CDT
Flying Clubs
WiFi Access
Airport Statistics
Location: Fargo, ND
Elevation: 901ft
Sectional: Twin Cities
Activation date: Aug 1937
Fuel: 100LL, A, A+, A++, J8 (prices)
Runway 18/36: 9,001ft
Runway 09/27: 6,302ft
Runway 13/31: 3,801ft
Access: Open to the public
Current Weather — VFR
  • Weather data is strictly informational and not for flight planning purposes.
  • METAR
    2024-04-24 08:53:00 CDT
    Ceiling Wind Temperature Dewpoint Weather Visbility
    Sky clear Calm 44°F 21°F N/A SM
    Raw: KFAR 241353Z 00000KT CLR 07/M06 A3021 RMK AO2 SLP236 T00671056 $
  • TAF
    2024-04-24 07:00:00 CDT – 2024-04-24 13:00:00 CDT
    Ceiling Wind Weather Visbility
    Sky clear Calm N/A 6SM
    Clouds: @ ft
    Raw: KFAR 241120Z 2412/2512 00000KT P6SM SKC FM241800 19005KT P6SM FEW250 FM250400 13010KT P6SM FEW240 FM250700 15014KT P6SM FEW240
  • TAF
    2024-04-24 13:00:00 CDT – 2024-04-24 23:00:00 CDT
    Ceiling Wind Weather Visbility
    Sky clear 190° @ 5kt N/A 6SM
    Clouds: Few @ 25,000ft
    Raw: KFAR 241120Z 2412/2512 00000KT P6SM SKC FM241800 19005KT P6SM FEW250 FM250400 13010KT P6SM FEW240 FM250700 15014KT P6SM FEW240
  • TAF
    2024-04-24 23:00:00 CDT – 2024-04-25 02:00:00 CDT
    Ceiling Wind Weather Visbility
    Sky clear 130° @ 10kt N/A 6SM
    Clouds: Few @ 24,000ft
    Raw: KFAR 241120Z 2412/2512 00000KT P6SM SKC FM241800 19005KT P6SM FEW250 FM250400 13010KT P6SM FEW240 FM250700 15014KT P6SM FEW240
  • TAF
    2024-04-25 02:00:00 CDT – 2024-04-25 07:00:00 CDT
    Ceiling Wind Weather Visbility
    Sky clear 150° @ 14kt N/A 6SM
    Clouds: Few @ 24,000ft
    Raw: KFAR 241120Z 2412/2512 00000KT P6SM SKC FM241800 19005KT P6SM FEW250 FM250400 13010KT P6SM FEW240 FM250700 15014KT P6SM FEW240
Click/tap to add an annotation marker to the map
Airport Webcams
No webcams added yet.
Direct links to live image URLs will be displayed inline on this page. URLs to separate webpages will be linked to.
URL:
Direct links to live image URLs will be displayed inline on this page. URLs to separate webpages will be linked to.
URL:
Remarks
  • Index e arff avbl 2 hours ppr ctc 701-476-6790.
  • Twy b n of twy d rstrd to acft less than 130,000 lbs.
  • Flight notification service (adcus) available mon-fri 0830-1700.
  • Ang-offl bus only ctc base ops dsn 362-8508, c701-451-2508 opr 1300-2230z++ wkd, clsd wkend and hol exc dur sked trng. other tran acft ctc jet cntr c701-235-3600; cstms avbl 24 hr. rcr avbl fr ang ops on 262.0. rgt tfc rwy 18.
  • Birds on and invof arpt.
Comments
Leave a comment What was your experience like at this airport?